createdAt,value
2019-05-26T19:28:37.745Z,19.16
2019-05-26T19:31:10.220Z,19.32
2019-05-26T19:33:42.265Z,19.38
2019-05-26T19:36:14.662Z,19.41
2019-05-26T19:38:47.295Z,19.50
2019-05-26T19:41:19.070Z,19.53
2019-05-26T19:43:51.334Z,19.54
2019-05-26T19:46:23.298Z,19.57
2019-05-26T19:48:55.718Z,19.54
2019-05-26T19:51:28.965Z,19.57
2019-05-26T19:54:01.484Z,19.62
2019-05-26T19:56:34.227Z,19.64
2019-05-26T19:59:06.884Z,19.39
2019-05-26T20:01:38.697Z,19.71
2019-05-26T20:04:10.708Z,19.64
2019-05-26T20:06:44.020Z,19.62
2019-05-26T20:09:16.672Z,19.59
2019-05-26T20:11:48.967Z,19.63
2019-05-26T20:14:21.010Z,19.51
2019-05-26T20:16:54.018Z,19.48
2019-05-26T20:19:26.741Z,19.48
2019-05-26T20:21:59.503Z,19.42
2019-05-26T20:24:32.019Z,19.43
2019-05-26T20:27:05.065Z,19.40
2019-05-26T20:29:37.584Z,19.40
2019-05-26T20:34:45.948Z,19.41
2019-05-26T20:37:18.572Z,19.25
2019-05-26T20:39:51.238Z,19.20
2019-05-26T20:42:23.545Z,19.16
2019-05-26T20:44:56.065Z,19.07
2019-05-26T20:47:28.421Z,19.03
2019-05-26T20:50:00.230Z,19.00
2019-05-26T20:52:32.459Z,18.92
2019-05-26T20:55:09.717Z,18.91
2019-05-26T20:57:44.032Z,18.90
2019-05-26T21:00:17.528Z,18.88
2019-05-26T21:02:50.275Z,18.81
2019-05-26T21:05:22.793Z,18.78
2019-05-26T21:07:54.673Z,18.79
2019-05-26T21:10:26.815Z,18.77
2019-05-26T21:12:58.790Z,18.73
2019-05-26T21:15:30.858Z,18.68
2019-05-26T21:18:03.797Z,18.65
2019-05-26T21:20:36.216Z,18.63
2019-05-26T21:23:08.100Z,18.66
2019-05-26T21:25:40.168Z,18.59
2019-05-26T21:28:12.820Z,18.67
2019-05-26T21:30:45.285Z,18.62
2019-05-26T21:33:17.272Z,18.63
2019-05-26T21:35:49.793Z,18.60
2019-05-26T21:38:22.295Z,18.58
2019-05-26T21:40:54.905Z,18.52
2019-05-26T21:43:27.342Z,18.47
2019-05-26T21:46:01.094Z,18.43
2019-05-26T21:48:34.809Z,18.37
2019-05-26T21:51:07.945Z,18.33
2019-05-26T21:53:40.988Z,18.31
2019-05-26T21:56:12.995Z,18.28
2019-05-26T21:58:45.166Z,18.25
2019-05-26T22:01:17.635Z,18.23
2019-05-26T22:03:50.012Z,18.16
2019-05-26T22:06:22.280Z,18.14
2019-05-26T22:08:55.081Z,18.06
2019-05-26T22:11:26.801Z,18.06
2019-05-26T22:13:59.068Z,18.02
2019-05-26T22:16:31.912Z,18.06
2019-05-26T22:19:04.709Z,18.13
2019-05-26T22:21:36.922Z,18.11
2019-05-26T22:24:10.339Z,18.07
2019-05-26T22:26:42.795Z,18.03
2019-05-26T22:29:15.682Z,18.03
2019-05-26T22:31:48.354Z,18.08
2019-05-26T22:34:20.012Z,18.06
2019-05-26T22:36:52.223Z,18.01
2019-05-26T22:39:24.793Z,18.04
2019-05-26T22:41:57.626Z,18.11
2019-05-26T22:44:29.948Z,18.05
2019-05-26T22:47:01.984Z,17.99
2019-05-26T22:49:34.460Z,17.95
2019-05-26T22:52:06.349Z,18.06
2019-05-26T22:54:38.452Z,18.04
2019-05-26T22:57:10.984Z,17.95
2019-05-26T22:59:43.398Z,17.93
2019-05-26T23:02:16.150Z,17.84
2019-05-26T23:04:48.789Z,17.80
2019-05-26T23:07:21.367Z,17.75
2019-05-26T23:09:53.793Z,17.75
2019-05-26T23:12:26.124Z,17.71
2019-05-26T23:14:59.632Z,17.79
2019-05-26T23:17:31.553Z,17.84
2019-05-26T23:20:03.763Z,17.73
2019-05-26T23:22:36.362Z,17.69
2019-05-26T23:25:09.671Z,17.67
2019-05-26T23:27:42.387Z,17.60
2019-05-26T23:30:15.031Z,17.56
2019-05-26T23:32:47.554Z,17.51
2019-05-26T23:35:20.181Z,17.57
2019-05-26T23:37:52.854Z,17.51
2019-05-26T23:40:25.391Z,17.46
2019-05-26T23:42:57.374Z,17.46
2019-05-26T23:45:29.772Z,17.39
2019-05-26T23:48:02.498Z,17.41
2019-05-26T23:50:35.415Z,17.40
2019-05-26T23:53:08.373Z,17.39
2019-05-26T23:55:40.773Z,17.36
2019-05-26T23:58:13.262Z,17.36
